Time;durP1;ratioP1;P1;durP2;ratioP2;P2;SDS_P1;SDS_P2;PMS_P1;PMS_P2;Temp;Humidity;BMP_temperature;BMP_pressure;BME280_temperature;BME280_humidity;BME280_pressure;Samples;Min_cycle;Max_cycle;Signal;HPM_P1;HPM_P2
2022/03/08 00:00:36;;;;;;;12.33;8.40;;;2.00;80.00;;;;;;5005034;28;21138;-71
2022/03/08 00:03:03;;;;;;;9.30;7.47;;;2.00;79.80;;;;;;5007957;28;20186;-70
2022/03/08 00:05:29;;;;;;;11.97;7.90;;;2.00;81.20;;;;;;4987259;28;20215;-70
2022/03/08 00:07:55;;;;;;;12.60;7.67;;;2.00;79.30;;;;;;4989276;28;20513;-69
2022/03/08 00:10:21;;;;;;;13.93;8.10;;;2.10;78.70;;;;;;4987553;28;20467;-69
2022/03/08 00:12:48;;;;;;;11.80;8.10;;;2.20;79.00;;;;;;4988936;28;20491;-69
2022/03/08 00:15:19;;;;;;;11.10;7.90;;;2.00;76.60;;;;;;4987701;28;20614;-69
2022/03/08 00:17:45;;;;;;;12.97;8.23;;;2.00;79.20;;;;;;5006028;28;20733;-69
2022/03/08 00:20:12;;;;;;;11.50;7.80;;;2.00;79.50;;;;;;4988438;28;20430;-69
2022/03/08 00:22:38;;;;;;;11.53;8.00;;;2.00;79.50;;;;;;4986888;28;20193;-69
2022/03/08 00:25:07;;;;;;;11.87;8.23;;;2.00;79.60;;;;;;4988670;28;20955;-69
2022/03/08 00:27:32;;;;;;;13.00;8.30;;;2.00;78.90;;;;;;4988690;28;20527;-69
2022/03/08 00:29:58;;;;;;;12.03;8.47;;;2.00;80.20;;;;;;4999448;28;20609;-69
2022/03/08 00:32:24;;;;;;;12.90;9.27;;;2.00;79.80;;;;;;4987625;28;20225;-69
2022/03/08 00:34:50;;;;;;;11.73;8.43;;;2.00;80.10;;;;;;4988110;28;20525;-69
2022/03/08 00:37:16;;;;;;;14.60;8.70;;;2.00;80.30;;;;;;4986525;28;20195;-69
2022/03/08 00:39:42;;;;;;;12.20;8.50;;;2.00;79.60;;;;;;4988247;28;20441;-70
2022/03/08 00:42:11;;;;;;;11.40;7.50;;;2.00;78.90;;;;;;4986610;28;20175;-69
2022/03/08 00:44:41;;;;;;;15.20;9.20;;;2.10;79.30;;;;;;4988200;28;20443;-69
2022/03/08 00:47:08;;;;;;;12.37;8.20;;;2.10;79.10;;;;;;4988233;28;20596;-69
2022/03/08 00:49:33;;;;;;;12.87;7.60;;;2.10;78.60;;;;;;4987679;28;20818;-69
2022/03/08 00:51:59;;;;;;;10.40;8.10;;;2.10;78.60;;;;;;4988059;28;20620;-69
2022/03/08 00:54:25;;;;;;;12.80;8.50;;;2.10;78.50;;;;;;4986491;28;20180;-70
2022/03/08 00:56:50;;;;;;;11.40;8.47;;;2.10;78.50;;;;;;4986803;28;20187;-69
2022/03/08 00:59:16;;;;;;;12.10;8.30;;;2.10;79.00;;;;;;4995604;28;20195;-69
2022/03/08 01:01:41;;;;;;;12.40;8.43;;;2.10;79.50;;;;;;4989221;28;20201;-69
2022/03/08 01:04:07;;;;;;;13.40;8.67;;;2.10;79.10;;;;;;4986862;28;20270;-71
2022/03/08 01:06:32;;;;;;;15.77;9.03;;;2.00;77.60;;;;;;4987600;28;20674;-69
2022/03/08 01:08:59;;;;;;;15.60;8.90;;;2.00;80.40;;;;;;4988383;28;20257;-69
2022/03/08 01:11:24;;;;;;;12.33;8.27;;;2.20;81.10;;;;;;4987799;28;20269;-69
2022/03/08 01:13:50;;;;;;;15.27;8.93;;;2.00;81.50;;;;;;4984864;28;20537;-69
2022/03/08 01:16:15;;;;;;;13.10;8.10;;;1.90;82.00;;;;;;4987406;28;20297;-69
2022/03/08 01:18:41;;;;;;;13.60;8.30;;;1.90;82.10;;;;;;4986646;28;20181;-70
2022/03/08 01:21:07;;;;;;;12.67;8.60;;;1.90;82.60;;;;;;4986672;28;20168;-69
2022/03/08 01:23:32;;;;;;;14.17;8.00;;;1.80;83.20;;;;;;4985042;28;20446;-69
2022/03/08 01:25:58;;;;;;;11.93;7.90;;;1.90;83.90;;;;;;4988061;28;20203;-69
2022/03/08 01:28:23;;;;;;;11.57;7.63;;;1.80;84.50;;;;;;4990860;28;20186;-69
2022/03/08 01:30:49;;;;;;;11.80;8.20;;;1.90;84.70;;;;;;4994574;28;20237;-69
2022/03/08 01:33:15;;;;;;;12.90;8.50;;;1.80;84.80;;;;;;4985481;28;20211;-70
2022/03/08 01:35:40;;;;;;;10.00;7.80;;;1.70;85.10;;;;;;4985968;28;20230;-70
2022/03/08 01:38:06;;;;;;;12.40;8.70;;;1.70;86.70;;;;;;4987970;28;20184;-69
2022/03/08 01:40:31;;;;;;;12.50;8.30;;;1.70;86.70;;;;;;4987957;28;20269;-69
2022/03/08 01:42:57;;;;;;;13.60;7.90;;;1.70;86.80;;;;;;4988083;28;20179;-69
2022/03/08 01:45:24;;;;;;;11.67;8.30;;;1.60;87.30;;;;;;4987371;28;20230;-69
2022/03/08 01:47:51;;;;;;;14.37;8.20;;;1.60;87.50;;;;;;4968336;28;20187;-69
2022/03/08 01:50:17;;;;;;;12.90;8.53;;;1.60;87.70;;;;;;4983644;28;20434;-69
2022/03/08 01:52:43;;;;;;;11.77;7.60;;;1.60;88.00;;;;;;4987172;28;20457;-69
2022/03/08 01:55:10;;;;;;;13.80;8.30;;;1.60;85.00;;;;;;4987808;28;20509;-69
2022/03/08 01:57:36;;;;;;;12.83;7.90;;;1.60;88.20;;;;;;4987650;28;20176;-68
2022/03/08 02:00:05;;;;;;;13.80;8.40;;;1.60;88.20;;;;;;4972802;28;20428;-69
2022/03/08 02:02:31;;;;;;;13.33;8.93;;;1.60;87.70;;;;;;4990318;28;20182;-69
2022/03/08 02:04:56;;;;;;;11.60;7.80;;;1.60;88.20;;;;;;4986002;28;20953;-71
2022/03/08 02:07:23;;;;;;;10.80;7.63;;;1.60;87.70;;;;;;4987423;28;20195;-69
2022/03/08 02:09:49;;;;;;;13.07;8.30;;;2.10;88.50;;;;;;4985563;28;20653;-70
2022/03/08 02:12:15;;;;;;;11.37;7.93;;;1.70;88.40;;;;;;4985791;28;20487;-70
2022/03/08 02:14:41;;;;;;;12.53;8.30;;;1.70;89.00;;;;;;4984214;28;20180;-70
2022/03/08 02:17:07;;;;;;;11.93;7.63;;;1.90;89.50;;;;;;4985492;28;20194;-69
2022/03/08 02:19:33;;;;;;;12.63;8.33;;;1.70;89.90;;;;;;4986796;28;20823;-69
2022/03/08 02:21:58;;;;;;;11.17;8.47;;;1.60;90.00;;;;;;4988546;28;20222;-69
2022/03/08 02:24:24;;;;;;;12.07;7.90;;;1.90;90.10;;;;;;4991579;28;20189;-69
2022/03/08 02:26:51;;;;;;;11.57;7.87;;;1.50;90.40;;;;;;4990876;28;20289;-69
2022/03/08 02:29:16;;;;;;;12.37;8.57;;;2.00;90.90;;;;;;4998960;28;20179;-69
2022/03/08 02:31:42;;;;;;;10.70;7.77;;;1.70;90.60;;;;;;4994466;28;20991;-69
2022/03/08 02:34:07;;;;;;;12.90;8.63;;;1.70;90.70;;;;;;4991085;28;20216;-70
2022/03/08 02:36:33;;;;;;;16.07;9.10;;;1.40;90.70;;;;;;4990430;28;20206;-69
2022/03/08 02:38:59;;;;;;;10.17;8.17;;;1.60;91.30;;;;;;4983052;28;20179;-69
2022/03/08 02:41:25;;;;;;;10.77;7.80;;;1.40;90.90;;;;;;4989803;28;20186;-69
2022/03/08 02:43:50;;;;;;;12.87;8.40;;;1.80;90.90;;;;;;4990221;28;20187;-70
2022/03/08 02:46:16;;;;;;;12.20;8.40;;;1.50;91.00;;;;;;4989885;28;20521;-69
2022/03/08 02:48:41;;;;;;;14.70;8.80;;;1.50;91.00;;;;;;4990038;28;20258;-70
2022/03/08 02:51:07;;;;;;;13.47;8.70;;;2.00;90.90;;;;;;4990716;28;20712;-69
2022/03/08 02:53:32;;;;;;;11.33;7.70;;;1.80;91.20;;;;;;4989130;28;20211;-69
2022/03/08 02:55:58;;;;;;;15.30;7.87;;;1.50;90.00;;;;;;4989986;28;20566;-70
2022/03/08 02:58:24;;;;;;;11.90;8.77;;;1.50;91.30;;;;;;4990400;28;20176;-69
2022/03/08 03:00:49;;;;;;;11.70;7.93;;;2.00;91.00;;;;;;4998400;28;20704;-69
2022/03/08 03:03:15;;;;;;;12.77;7.83;;;1.50;90.80;;;;;;4989565;28;20673;-70
2022/03/08 03:05:41;;;;;;;12.30;8.37;;;1.50;91.20;;;;;;4990328;28;20214;-70
2022/03/08 03:08:07;;;;;;;11.70;8.33;;;1.50;91.30;;;;;;4990573;28;20199;-70
2022/03/08 03:10:32;;;;;;;13.77;8.77;;;1.80;91.70;;;;;;4990228;28;20293;-69
2022/03/08 03:12:59;;;;;;;12.50;8.23;;;1.90;91.40;;;;;;4990247;28;20838;-69
2022/03/08 03:15:26;;;;;;;10.57;7.57;;;1.80;91.50;;;;;;4988297;28;20205;-69
2022/03/08 03:17:52;;;;;;;13.23;8.43;;;1.80;91.30;;;;;;4989538;28;20723;-70
2022/03/08 03:20:20;;;;;;;15.43;8.50;;;1.90;91.50;;;;;;4989634;28;20407;-70
2022/03/08 03:22:47;;;;;;;12.60;8.57;;;1.90;91.30;;;;;;4990022;28;20437;-69
2022/03/08 03:25:13;;;;;;;11.77;8.53;;;1.80;91.00;;;;;;4989449;28;20469;-69
2022/03/08 03:27:39;;;;;;;11.20;7.93;;;1.50;91.30;;;;;;4990097;28;20912;-70
2022/03/08 03:30:08;;;;;;;12.80;8.57;;;1.90;91.70;;;;;;4999155;28;20793;-69
2022/03/08 03:32:33;;;;;;;13.07;8.83;;;1.40;91.30;;;;;;4989111;28;20971;-69
2022/03/08 03:35:00;;;;;;;13.43;8.20;;;1.70;93.40;;;;;;4987361;28;20411;-69
2022/03/08 03:37:26;;;;;;;12.73;8.60;;;1.30;90.60;;;;;;4989601;28;20202;-69
2022/03/08 03:39:51;;;;;;;13.80;8.60;;;1.30;91.90;;;;;;4988637;28;20944;-69
2022/03/08 03:42:17;;;;;;;11.73;7.97;;;1.30;92.10;;;;;;4988959;28;20179;-69
2022/03/08 03:44:42;;;;;;;12.20;7.73;;;1.30;92.10;;;;;;4989946;28;20184;-70
2022/03/08 03:47:08;;;;;;;11.50;8.23;;;1.30;91.20;;;;;;4988817;28;20786;-69
2022/03/08 03:49:34;;;;;;;11.97;8.33;;;1.80;92.70;;;;;;4988166;28;20739;-70
2022/03/08 03:52:01;;;;;;;13.30;7.90;;;1.70;93.00;;;;;;4987742;28;20586;-69
2022/03/08 03:54:27;;;;;;;11.43;8.20;;;1.30;92.10;;;;;;4989254;28;20553;-69
2022/03/08 03:56:52;;;;;;;10.87;8.30;;;1.20;92.20;;;;;;4988813;28;20459;-69
2022/03/08 03:59:18;;;;;;;13.43;8.80;;;1.60;92.40;;;;;;4994886;28;20178;-69
2022/03/08 04:01:43;;;;;;;12.00;8.17;;;1.60;92.90;;;;;;4991001;28;20222;-69
2022/03/08 04:04:09;;;;;;;13.00;7.73;;;1.20;92.30;;;;;;4987401;28;20528;-69
2022/03/08 04:06:34;;;;;;;13.97;8.13;;;1.40;92.60;;;;;;4988983;28;20278;-69
2022/03/08 04:09:02;;;;;;;14.67;8.40;;;1.20;92.60;;;;;;4987454;28;20180;-70
2022/03/08 04:11:27;;;;;;;12.17;8.27;;;1.60;93.00;;;;;;4988527;28;20190;-69
2022/03/08 04:13:53;;;;;;;15.53;8.60;;;1.60;93.30;;;;;;4987338;28;20422;-69
2022/03/08 04:16:18;;;;;;;12.97;9.37;;;1.10;93.20;;;;;;4987578;28;20202;-69
2022/03/08 04:18:44;;;;;;;13.13;8.40;;;1.40;93.60;;;;;;4988080;28;20184;-69
2022/03/08 04:21:09;;;;;;;11.10;7.87;;;1.50;93.40;;;;;;4988779;28;20186;-70
2022/03/08 04:23:35;;;;;;;14.03;8.27;;;1.20;93.10;;;;;;4989054;28;20230;-69
2022/03/08 04:26:00;;;;;;;12.27;8.07;;;1.10;93.10;;;;;;4989072;28;20391;-70
2022/03/08 04:28:26;;;;;;;15.13;8.37;;;1.20;92.70;;;;;;4991992;28;20183;-69
2022/03/08 04:30:51;;;;;;;12.00;8.50;;;1.50;94.40;;;;;;4996937;28;20218;-72
2022/03/08 04:33:17;;;;;;;11.30;8.37;;;1.20;92.60;;;;;;4987907;28;20218;-69
2022/03/08 04:35:42;;;;;;;11.93;8.03;;;1.10;92.30;;;;;;4988934;28;20724;-70
2022/03/08 04:38:08;;;;;;;10.20;7.93;;;1.50;92.60;;;;;;4980485;28;20197;-69
2022/03/08 04:40:34;;;;;;;12.87;8.50;;;1.10;92.80;;;;;;4988481;28;20174;-69
2022/03/08 04:43:00;;;;;;;12.77;9.10;;;1.40;92.90;;;;;;4988320;28;20206;-69
2022/03/08 04:45:26;;;;;;;13.13;8.70;;;1.00;92.50;;;;;;4987548;28;20313;-69
2022/03/08 04:47:51;;;;;;;12.00;8.43;;;1.40;92.70;;;;;;4988676;28;20613;-69
2022/03/08 04:50:17;;;;;;;14.43;9.30;;;1.50;92.10;;;;;;4987469;28;20427;-70
2022/03/08 04:52:45;;;;;;;12.23;8.17;;;1.20;92.60;;;;;;4988670;28;20315;-69
2022/03/08 04:55:10;;;;;;;14.40;8.87;;;1.10;90.80;;;;;;4988428;28;20438;-69
2022/03/08 04:57:36;;;;;;;11.80;8.40;;;1.50;92.10;;;;;;4988242;28;20426;-69
2022/03/08 05:00:04;;;;;;;13.73;8.93;;;1.10;92.10;;;;;;4991131;28;20579;-69
2022/03/08 05:02:30;;;;;;;10.80;8.13;;;1.10;92.00;;;;;;4987841;28;20326;-70
2022/03/08 05:04:56;;;;;;;13.23;9.20;;;1.10;92.10;;;;;;4987648;28;20506;-70
2022/03/08 05:07:22;;;;;;;13.10;8.10;;;1.10;92.30;;;;;;4988488;28;20192;-69
2022/03/08 05:09:47;;;;;;;12.40;8.40;;;1.20;91.80;;;;;;4988109;28;20430;-69
2022/03/08 05:12:14;;;;;;;12.53;8.57;;;1.40;91.90;;;;;;4987613;28;20209;-69
2022/03/08 05:14:40;;;;;;;10.50;7.77;;;1.40;91.50;;;;;;4988224;28;20187;-69
2022/03/08 05:17:05;;;;;;;14.00;8.63;;;1.10;91.20;;;;;;4986503;28;20786;-69
2022/03/08 05:19:31;;;;;;;11.77;8.40;;;1.10;91.00;;;;;;4987441;28;20214;-69
2022/03/08 05:21:57;;;;;;;12.07;8.40;;;1.70;90.70;;;;;;4987921;28;20687;-69
2022/03/08 05:24:23;;;;;;;14.00;8.30;;;1.60;90.60;;;;;;4988002;28;20186;-69
2022/03/08 05:26:48;;;;;;;14.73;9.03;;;1.20;87.90;;;;;;4988380;28;20277;-69
2022/03/08 05:29:14;;;;;;;14.00;8.37;;;1.70;90.30;;;;;;4991812;28;20454;-69
2022/03/08 05:31:39;;;;;;;12.37;8.10;;;1.80;89.80;;;;;;4989884;28;20242;-70
2022/03/08 05:34:05;;;;;;;11.60;8.10;;;1.20;90.00;;;;;;4986670;28;20198;-69
2022/03/08 05:36:31;;;;;;;11.37;8.13;;;1.20;86.30;;;;;;4987513;28;20199;-70
2022/03/08 05:38:56;;;;;;;10.17;8.27;;;1.20;88.30;;;;;;4988028;28;20183;-69
2022/03/08 05:41:22;;;;;;;12.00;8.50;;;1.60;88.50;;;;;;4987800;28;20354;-69
2022/03/08 05:43:47;;;;;;;14.50;9.17;;;1.30;88.30;;;;;;4987354;28;20188;-70
2022/03/08 05:46:13;;;;;;;16.70;8.30;;;1.30;87.90;;;;;;4987885;28;20194;-70
2022/03/08 05:48:39;;;;;;;15.83;8.43;;;1.30;87.30;;;;;;4987008;28;20179;-70
2022/03/08 05:51:04;;;;;;;11.33;8.27;;;1.70;87.90;;;;;;4987402;28;20208;-70
2022/03/08 05:53:30;;;;;;;11.80;8.23;;;1.40;87.20;;;;;;4987450;28;20213;-70
2022/03/08 05:55:56;;;;;;;11.87;8.40;;;1.80;87.70;;;;;;4988444;28;20634;-70
2022/03/08 05:58:21;;;;;;;13.70;8.17;;;1.80;87.80;;;;;;4997251;28;20209;-70
2022/03/08 06:00:47;;;;;;;12.73;8.43;;;1.80;88.00;;;;;;4999739;28;20202;-69
2022/03/08 06:03:13;;;;;;;16.70;8.37;;;1.70;87.70;;;;;;4989925;28;20222;-69
2022/03/08 06:05:38;;;;;;;12.30;8.20;;;2.00;88.20;;;;;;4991659;28;20241;-70
2022/03/08 06:08:04;;;;;;;12.77;8.60;;;1.80;89.10;;;;;;4991479;28;20176;-69
2022/03/08 06:10:30;;;;;;;11.57;8.27;;;1.70;89.00;;;;;;4989682;28;20257;-69
2022/03/08 06:12:56;;;;;;;12.60;8.70;;;1.50;88.00;;;;;;4989914;28;20789;-70
2022/03/08 06:15:22;;;;;;;14.90;9.00;;;1.50;85.50;;;;;;4992275;28;20425;-70
2022/03/08 06:17:47;;;;;;;14.93;8.80;;;1.50;88.50;;;;;;4999497;28;20176;-69
2022/03/08 06:20:13;;;;;;;15.50;9.60;;;1.60;89.20;;;;;;4990519;28;20200;-69
2022/03/08 06:22:39;;;;;;;13.00;8.30;;;2.00;88.10;;;;;;4990958;28;20171;-69
2022/03/08 06:25:05;;;;;;;14.70;8.37;;;;;;;;;;4991593;28;20254;-69
2022/03/08 06:27:30;;;;;;;12.47;8.70;;;1.70;84.30;;;;;;4989361;28;20801;-69
2022/03/08 06:29:56;;;;;;;13.40;8.90;;;1.80;86.30;;;;;;5000395;28;20602;-69
2022/03/08 06:32:21;;;;;;;12.70;8.60;;;1.80;85.70;;;;;;4999665;28;20884;-70
2022/03/08 06:34:50;;;;;;;14.80;9.30;;;1.90;85.70;;;;;;4989446;28;20194;-69
2022/03/08 06:37:16;;;;;;;12.77;8.70;;;2.40;86.30;;;;;;4990701;28;20187;-70
2022/03/08 06:39:41;;;;;;;10.67;8.20;;;2.00;84.60;;;;;;4990539;28;20868;-70
2022/03/08 06:42:07;;;;;;;14.20;9.03;;;2.10;84.90;;;;;;4989205;28;20646;-71
2022/03/08 06:44:33;;;;;;;14.07;9.40;;;2.10;85.50;;;;;;4990657;28;20183;-71
2022/03/08 06:46:58;;;;;;;14.37;8.47;;;2.40;85.80;;;;;;4990140;28;20643;-69
2022/03/08 06:49:24;;;;;;;11.53;7.53;;;2.60;85.30;;;;;;4989959;28;20204;-71
2022/03/08 06:51:50;;;;;;;13.40;8.23;;;2.20;84.20;;;;;;4988716;28;20294;-71
2022/03/08 06:54:15;;;;;;;15.50;8.53;;;2.50;84.60;;;;;;4988839;28;20171;-71
2022/03/08 06:56:41;;;;;;;13.87;8.50;;;2.60;84.20;;;;;;4989055;28;20199;-71
2022/03/08 06:59:07;;;;;;;10.47;7.07;;;2.50;83.50;;;;;;4994808;28;20468;-71
2022/03/08 07:01:32;;;;;;;12.67;7.97;;;3.20;81.90;;;;;;4990098;28;20216;-70
2022/03/08 07:03:58;;;;;;;12.10;8.30;;;2.80;79.80;;;;;;4991292;28;20618;-71
2022/03/08 07:06:24;;;;;;;12.37;8.50;;;3.10;79.80;;;;;;4989136;28;20231;-70
2022/03/08 07:08:50;;;;;;;13.30;9.47;;;3.50;76.80;;;;;;4990155;28;20175;-71
2022/03/08 07:11:16;;;;;;;13.17;8.67;;;3.80;74.40;;;;;;4983795;28;20176;-71
2022/03/08 07:13:42;;;;;;;11.53;8.23;;;4.00;74.50;;;;;;4984301;28;21017;-71
2022/03/08 07:16:08;;;;;;;13.13;9.33;;;3.50;75.80;;;;;;4985719;28;20533;-71
2022/03/08 07:18:34;;;;;;;16.07;8.60;;;3.60;77.10;;;;;;4986782;28;20263;-71
2022/03/08 07:21:00;;;;;;;12.47;8.47;;;3.40;77.40;;;;;;4988598;28;20172;-71
2022/03/08 07:23:26;;;;;;;12.73;8.37;;;3.20;78.70;;;;;;4985103;28;20209;-71
2022/03/08 07:25:51;;;;;;;12.40;8.60;;;3.20;78.40;;;;;;4987451;28;20454;-70
2022/03/08 07:28:17;;;;;;;12.23;8.70;;;3.20;79.70;;;;;;4988829;28;20680;-71
2022/03/08 07:30:42;;;;;;;11.30;8.33;;;3.50;79.30;;;;;;4985778;28;20184;-71
2022/03/08 07:33:08;;;;;;;13.60;8.77;;;3.10;80.30;;;;;;4986896;28;20674;-72
2022/03/08 07:35:33;;;;;;;14.17;8.27;;;3.20;80.00;;;;;;4986495;28;20189;-71
2022/03/08 07:37:59;;;;;;;14.47;8.57;;;3.20;80.00;;;;;;4989383;28;20199;-71
2022/03/08 07:40:24;;;;;;;12.10;8.40;;;3.40;79.00;;;;;;4987268;28;20263;-71
2022/03/08 07:42:50;;;;;;;12.70;8.60;;;3.30;79.80;;;;;;4988046;28;20586;-71
2022/03/08 07:45:15;;;;;;;13.30;9.00;;;3.40;76.10;;;;;;5000039;28;20238;-71
2022/03/08 07:47:41;;;;;;;14.47;9.07;;;3.40;79.00;;;;;;4984499;28;20193;-71
2022/03/08 07:50:07;;;;;;;13.10;8.63;;;3.80;79.00;;;;;;4986595;28;20686;-71
2022/03/08 07:52:33;;;;;;;10.60;7.67;;;3.50;77.90;;;;;;4988618;28;20687;-71
2022/03/08 07:54:58;;;;;;;13.40;7.37;;;3.50;78.50;;;;;;4989234;28;20585;-71
2022/03/08 07:57:24;;;;;;;12.47;8.53;;;3.60;79.00;;;;;;4989158;28;20205;-71
2022/03/08 07:59:49;;;;;;;11.43;7.70;;;3.60;78.00;;;;;;4995881;28;20183;-70
2022/03/08 08:02:15;;;;;;;12.00;8.13;;;3.70;78.40;;;;;;4984735;28;20238;-71
2022/03/08 08:04:41;;;;;;;12.53;8.33;;;3.70;78.10;;;;;;4986330;28;20199;-70
2022/03/08 08:07:06;;;;;;;14.37;8.70;;;3.70;75.70;;;;;;4989913;28;20250;-70
2022/03/08 08:09:33;;;;;;;11.57;7.80;;;4.00;78.80;;;;;;4989728;28;20234;-70
2022/03/08 08:11:59;;;;;;;17.87;9.23;;;3.80;78.20;;;;;;4989748;28;20322;-70
2022/03/08 08:14:24;;;;;;;14.13;8.37;;;3.90;78.90;;;;;;4989722;28;20890;-70
2022/03/08 08:16:50;;;;;;;12.23;8.47;;;3.90;79.70;;;;;;4989797;28;20434;-71
2022/03/08 08:19:15;;;;;;;12.20;8.50;;;3.90;79.80;;;;;;4989372;28;20164;-70
2022/03/08 08:21:41;;;;;;;18.23;9.47;;;4.20;79.50;;;;;;4987883;28;20571;-70
2022/03/08 08:24:07;;;;;;;15.13;9.10;;;4.10;79.00;;;;;;4988381;28;20192;-70
2022/03/08 08:26:33;;;;;;;15.37;7.97;;;4.30;79.10;;;;;;4989873;28;20190;-71
2022/03/08 08:28:59;;;;;;;12.87;8.80;;;4.30;78.70;;;;;;4996279;28;20423;-70
2022/03/08 08:31:28;;;;;;;12.57;8.43;;;4.40;78.80;;;;;;5002402;28;20410;-70
2022/03/08 08:33:54;;;;;;;16.13;9.30;;;4.40;78.60;;;;;;5008470;28;20169;-71
2022/03/08 08:36:19;;;;;;;12.67;9.00;;;4.50;78.00;;;;;;5008991;28;20426;-70
2022/03/08 08:38:45;;;;;;;13.50;8.30;;;4.60;77.80;;;;;;4983766;28;20181;-71
2022/03/08 08:41:10;;;;;;;12.63;8.30;;;4.90;77.60;;;;;;4989492;28;20618;-71
2022/03/08 08:43:36;;;;;;;11.40;8.00;;;4.90;77.90;;;;;;4989259;28;20167;-71
2022/03/08 08:46:02;;;;;;;12.40;8.77;;;4.90;76.10;;;;;;4989292;28;20561;-71
2022/03/08 08:48:27;;;;;;;12.33;8.63;;;4.90;76.00;;;;;;4988348;28;20675;-70
2022/03/08 08:50:53;;;;;;;15.27;8.40;;;5.40;73.80;;;;;;4989155;28;20173;-70
2022/03/08 08:53:19;;;;;;;11.10;8.67;;;7.00;66.70;;;;;;4989159;28;20202;-70
2022/03/08 08:55:45;;;;;;;12.00;8.67;;;8.80;55.90;;;;;;4989448;28;20576;-71
2022/03/08 08:58:11;;;;;;;12.67;8.53;;;10.50;48.50;;;;;;4994011;28;20491;-71
2022/03/08 09:00:37;;;;;;;16.23;8.70;;;11.90;39.50;;;;;;4999116;28;20413;-71
2022/03/08 09:03:04;;;;;;;11.30;9.70;;;13.00;40.50;;;;;;5008615;28;20433;-71
2022/03/08 09:05:29;;;;;;;11.77;9.10;;;13.70;41.00;;;;;;5008548;28;20202;-71
2022/03/08 09:07:55;;;;;;;10.77;9.57;;;14.00;41.40;;;;;;5008768;28;20412;-71
2022/03/08 09:10:23;;;;;;;11.93;9.80;;;14.30;41.70;;;;;;5008909;28;20482;-72
2022/03/08 09:12:51;;;;;;;11.90;10.00;;;14.60;34.60;;;;;;5007109;28;20349;-71
2022/03/08 09:15:18;;;;;;;13.20;10.33;;;14.70;34.00;;;;;;5007298;28;20412;-71
2022/03/08 09:17:44;;;;;;;13.93;11.37;;;15.50;31.20;;;;;;4986026;28;20927;-71
2022/03/08 09:20:10;;;;;;;13.13;11.70;;;16.10;28.80;;;;;;4987331;28;20501;-72
2022/03/08 09:22:37;;;;;;;13.50;11.70;;;16.10;28.50;;;;;;4988889;28;20174;-72
2022/03/08 09:25:03;;;;;;;14.17;11.53;;;16.60;27.20;;;;;;4988045;28;20712;-72
2022/03/08 09:27:30;;;;;;;15.00;12.33;;;17.40;24.80;;;;;;4987644;28;20496;-72
2022/03/08 09:29:56;;;;;;;13.50;11.60;;;17.60;22.30;;;;;;4997535;28;20962;-71
2022/03/08 09:32:21;;;;;;;13.33;11.87;;;17.80;22.30;;;;;;4991110;28;20561;-72
2022/03/08 09:34:47;;;;;;;13.97;11.47;;;18.40;20.60;;;;;;4991454;28;20995;-72
2022/03/08 09:37:14;;;;;;;24.90;12.60;;;18.60;20.20;;;;;;4992547;28;20595;-71
2022/03/08 09:39:40;;;;;;;14.60;11.90;;;18.70;20.20;;;;;;4991729;28;20520;-72
2022/03/08 09:42:05;;;;;;;13.43;11.80;;;18.70;17.90;;;;;;4992440;28;20501;-72
2022/03/08 09:44:31;;;;;;;15.83;11.80;;;18.80;18.40;;;;;;4993073;28;20233;-72
2022/03/08 09:46:57;;;;;;;18.77;11.73;;;18.90;18.20;;;;;;4991760;28;20655;-72
2022/03/08 09:49:23;;;;;;;14.70;11.77;;;19.60;16.50;;;;;;4992782;28;20171;-72
2022/03/08 09:51:51;;;;;;;12.87;10.57;;;19.20;16.00;;;;;;4990014;28;20308;-72
2022/03/08 09:54:17;;;;;;;16.73;11.60;;;19.40;16.20;;;;;;4992420;28;20163;-72
2022/03/08 09:56:43;;;;;;;14.00;11.60;;;19.50;15.20;;;;;;4991066;28;20528;-72
2022/03/08 09:59:08;;;;;;;12.90;11.13;;;20.30;13.40;;;;;;4998976;28;20193;-72
2022/03/08 10:01:34;;;;;;;14.30;11.00;;;20.70;12.30;;;;;;5007352;28;20235;-72
2022/03/08 10:04:00;;;;;;;12.20;10.90;;;21.30;10.30;;;;;;5011517;28;20257;-72
2022/03/08 10:06:39;;;;;;;13.50;10.70;;;21.40;10.40;;;;;;5012247;28;20285;-72
2022/03/08 10:09:25;;;;;;;12.87;10.17;;;21.30;9.50;;;;;;4991890;28;20416;-72
2022/03/08 10:11:55;;;;;;;14.70;11.37;;;21.60;9.80;;;;;;4991955;28;20457;-72
2022/03/08 10:14:39;;;;;;;16.00;12.30;;;21.40;9.10;;;;;;4992558;28;20563;-72
2022/03/08 10:17:10;;;;;;;13.17;9.70;;;20.60;5.90;;;;;;4990168;28;20516;-72
2022/03/08 10:19:45;;;;;;;11.80;9.90;;;22.00;6.30;;;;;;4992053;28;20727;-72
2022/03/08 10:22:25;;;;;;;11.80;9.93;;;21.30;7.90;;;;;;4990334;28;20511;-72
2022/03/08 10:25:07;;;;;;;13.10;10.20;;;21.00;8.70;;;;;;4992325;28;20936;-71
2022/03/08 10:27:33;;;;;;;11.17;9.73;;;21.20;6.20;;;;;;4992065;28;20417;-72
2022/03/08 10:29:59;;;;;;;11.30;10.10;;;21.10;7.70;;;;;;5003658;28;20816;-72
2022/03/08 10:32:35;;;;;;;12.00;10.07;;;20.60;7.90;;;;;;5010610;28;20225;-72
2022/03/08 10:35:01;;;;;;;14.33;10.07;;;20.20;9.30;;;;;;5011026;28;20451;-72
2022/03/08 10:37:35;;;;;;;11.57;10.23;;;20.70;8.50;;;;;;4997778;28;20535;-72
2022/03/08 10:40:04;;;;;;;13.07;9.30;;;21.70;8.00;;;;;;4990060;28;20445;-72
2022/03/08 10:42:37;;;;;;;14.73;10.00;;;22.20;5.20;;;;;;4990979;28;20505;-72
2022/03/08 10:45:10;;;;;;;11.80;9.73;;;23.00;3.20;;;;;;4991756;28;20424;-72
2022/03/08 10:47:41;;;;;;;13.10;9.33;;;23.40;1.70;;;;;;4990885;28;20481;-72
2022/03/08 10:50:07;;;;;;;12.40;9.30;;;23.50;1.00;;;;;;4989931;28;20524;-72
2022/03/08 10:52:39;;;;;;;15.50;9.63;;;24.20;1.10;;;;;;4991292;28;20484;-72
2022/03/08 10:55:19;;;;;;;10.90;8.97;;;24.70;1.00;;;;;;4991573;28;20539;-72
2022/03/08 10:57:53;;;;;;;11.40;9.40;;;24.00;1.00;;;;;;4991067;28;20178;-72
2022/03/08 11:00:20;;;;;;;9.97;8.90;;;24.00;1.00;;;;;;5003043;28;20509;-72
2022/03/08 11:02:55;;;;;;;11.30;9.60;;;23.80;1.00;;;;;;5008558;28;20283;-72
2022/03/08 11:05:23;;;;;;;12.87;10.20;;;23.30;1.00;;;;;;5009056;28;20221;-72
2022/03/08 11:07:49;;;;;;;10.80;9.33;;;23.30;1.00;;;;;;5010393;28;20528;-72
2022/03/08 11:10:17;;;;;;;12.13;8.80;;;22.60;1.00;;;;;;5010757;28;20270;-72
2022/03/08 11:12:43;;;;;;;14.83;8.70;;;23.10;1.00;;;;;;5008777;28;20488;-71
2022/03/08 11:15:10;;;;;;;12.77;8.73;;;24.50;1.00;;;;;;5009487;28;20206;-72
2022/03/08 11:17:39;;;;;;;10.20;8.83;;;24.50;1.00;;;;;;4987245;28;20610;-72
2022/03/08 11:20:07;;;;;;;12.33;8.30;;;24.90;1.00;;;;;;4989525;28;20540;-72
2022/03/08 11:22:33;;;;;;;12.80;8.20;;;24.80;1.00;;;;;;4988973;28;20715;-72
2022/03/08 11:25:00;;;;;;;12.93;8.20;;;24.50;1.00;;;;;;4990864;28;20675;-72
2022/03/08 11:27:25;;;;;;;8.50;7.60;;;24.70;1.00;;;;;;4990415;28;20228;-72
2022/03/08 11:29:52;;;;;;;9.40;8.20;;;25.00;1.00;;;;;;5001221;28;20279;-72
2022/03/08 11:32:48;;;;;;;9.93;8.13;;;24.60;1.00;;;;;;5008032;28;20730;-72
2022/03/08 11:35:22;;;;;;;8.50;7.47;;;24.70;1.00;;;;;;5008721;28;20206;-72
2022/03/08 11:37:50;;;;;;;14.40;8.23;;;24.70;1.00;;;;;;5010147;28;20588;-72
2022/03/08 11:40:18;;;;;;;13.50;8.00;;;25.10;1.00;;;;;;5010477;28;20198;-72
2022/03/08 11:42:45;;;;;;;11.40;8.57;;;25.20;1.00;;;;;;5010109;28;20201;-72
2022/03/08 11:45:17;;;;;;;14.60;8.17;;;25.30;1.00;;;;;;5010336;28;20173;-72
2022/03/08 11:47:59;;;;;;;8.80;7.90;;;25.30;1.00;;;;;;5009427;28;20176;-72
2022/03/08 11:50:31;;;;;;;10.10;8.20;;;25.90;1.00;;;;;;5002583;28;20210;-72
2022/03/08 11:53:06;;;;;;;9.90;7.27;;;26.50;1.00;;;;;;4989660;28;20194;-72
2022/03/08 11:55:38;;;;;;;10.63;7.57;;;27.30;1.00;;;;;;4988323;28;20268;-72
2022/03/08 11:58:27;;;;;;;8.93;7.20;;;27.50;1.00;;;;;;4992666;28;20272;-72
2022/03/08 12:00:56;;;;;;;14.35;7.65;;;27.60;1.00;;;;;;5001316;28;20178;-72
2022/03/08 12:03:27;;;;;;;9.75;7.22;;;28.00;1.00;;;;;;5008936;28;20205;-72
2022/03/08 12:05:57;;;;;;;13.05;7.63;;;28.70;1.00;;;;;;5008563;28;20597;-72
2022/03/08 12:08:28;;;;;;;8.45;7.15;;;27.60;1.00;;;;;;5009572;28;20170;-72
2022/03/08 12:11:00;;;;;;;8.65;6.68;;;27.20;1.00;;;;;;5009825;28;20178;-72
2022/03/08 12:13:37;;;;;;;11.60;7.10;;;27.10;1.00;;;;;;5008111;28;20210;-71
2022/03/08 12:16:09;;;;;;;10.52;7.20;;;26.90;1.00;;;;;;4991368;28;20194;-72
2022/03/08 12:18:37;;;;;;;7.53;6.70;;;25.50;1.00;;;;;;4988982;28;20285;-72
2022/03/08 12:21:15;;;;;;;9.20;6.60;;;25.40;1.00;;;;;;4989758;28;20167;-73
2022/03/08 12:24:11;;;;;;;7.67;6.63;;;26.80;1.00;;;;;;4989870;28;20728;-72
2022/03/08 12:26:48;;;;;;;8.50;6.32;;;28.10;1.00;;;;;;4988340;28;20219;-71
2022/03/08 12:29:17;;;;;;;7.72;6.90;;;26.60;1.00;;;;;;4997990;28;20229;-72
2022/03/08 12:32:04;;;;;;;10.17;6.77;;;26.90;1.00;;;;;;5005739;28;20178;-72
2022/03/08 12:34:33;;;;;;;10.40;6.83;;;26.70;1.00;;;;;;5007934;28;20247;-72
2022/03/08 12:37:04;;;;;;;7.90;6.55;;;27.30;1.00;;;;;;5003182;28;20195;-72
2022/03/08 12:40:07;;;;;;;10.52;6.70;;;28.20;1.00;;;;;;4985545;28;20561;-72
2022/03/08 12:42:35;;;;;;;8.93;7.20;;;26.90;1.00;;;;;;4968718;28;20583;-72
2022/03/08 12:45:09;;;;;;;8.20;6.93;;;26.60;1.00;;;;;;4970399;28;20426;-72